Time;durP1;ratioP1;P1;durP2;ratioP2;P2;SDS_P1;SDS_P2;PMS_P1;PMS_P2;Temp;Humidity;BMP_temperature;BMP_pressure;BME280_temperature;BME280_humidity;BME280_pressure;Samples;Min_cycle;Max_cycle;Signal;HPM_P1;HPM_P2
2022/04/04 00:02:30;;;;;;;0.73;0.67;;;17.30;56.70;;;;;;5182187;28;20197;-65
2022/04/04 00:05:22;;;;;;;0.83;0.60;;;17.30;56.70;;;;;;5166095;28;20215;-65
2022/04/04 00:08:14;;;;;;;2.50;0.60;;;17.30;56.70;;;;;;5166902;28;20195;-65
2022/04/04 00:11:06;;;;;;;0.87;0.60;;;17.30;56.70;;;;;;5165539;28;20210;-65
2022/04/04 00:13:58;;;;;;;0.80;0.60;;;17.30;56.60;;;;;;5166383;28;20215;-65
2022/04/04 00:16:52;;;;;;;1.17;0.50;;;17.20;56.60;;;;;;5184210;28;20203;-65
2022/04/04 00:19:45;;;;;;;0.80;0.50;;;17.30;56.60;;;;;;5182779;28;20308;-64
2022/04/04 00:22:37;;;;;;;1.23;0.60;;;17.30;56.70;;;;;;5186060;28;20201;-64
2022/04/04 00:25:29;;;;;;;0.67;0.53;;;17.30;56.70;;;;;;5186205;28;20614;-65
2022/04/04 00:28:21;;;;;;;0.63;0.57;;;17.30;56.70;;;;;;5185659;28;20681;-65
2022/04/04 00:31:13;;;;;;;0.80;0.60;;;17.30;56.70;;;;;;5185920;28;20664;-65
2022/04/04 00:34:06;;;;;;;0.70;0.70;;;17.20;56.60;;;;;;5185735;28;20225;-65
2022/04/04 00:36:58;;;;;;;0.60;0.40;;;17.20;56.60;;;;;;5184556;28;20193;-65
2022/04/04 00:39:51;;;;;;;0.70;0.50;;;17.20;56.60;;;;;;5185753;28;20220;-65
2022/04/04 00:42:43;;;;;;;0.50;0.50;;;17.20;56.60;;;;;;5185341;28;20570;-65
2022/04/04 00:45:35;;;;;;;0.87;0.50;;;17.20;56.60;;;;;;5184601;28;20218;-65
2022/04/04 00:48:27;;;;;;;1.27;0.63;;;17.30;56.60;;;;;;5185290;28;20665;-65
2022/04/04 00:51:20;;;;;;;1.07;0.60;;;17.30;56.70;;;;;;5185330;28;20301;-65
2022/04/04 00:54:14;;;;;;;1.07;0.50;;;17.20;56.60;;;;;;5185004;28;20241;-65
2022/04/04 00:57:07;;;;;;;0.73;0.50;;;17.30;56.70;;;;;;5184354;28;20201;-65
2022/04/04 00:59:59;;;;;;;0.57;0.57;;;17.20;56.60;;;;;;5184354;28;20216;-66
2022/04/04 01:02:51;;;;;;;1.23;0.60;;;17.30;56.70;;;;;;5183936;28;20721;-66
2022/04/04 01:05:44;;;;;;;0.80;0.50;;;17.20;56.60;;;;;;5183765;28;20221;-65
2022/04/04 01:08:38;;;;;;;0.67;0.47;;;17.20;56.60;;;;;;5184379;28;20228;-65
2022/04/04 01:11:30;;;;;;;1.37;0.60;;;17.20;56.60;;;;;;5170281;28;20225;-65
2022/04/04 01:14:22;;;;;;;0.57;0.53;;;17.20;56.60;;;;;;5185636;28;20319;-65
2022/04/04 01:17:15;;;;;;;0.93;0.30;;;17.20;56.60;;;;;;5183409;28;20205;-65
2022/04/04 01:20:08;;;;;;;0.63;0.50;;;17.20;56.70;;;;;;5175518;28;20598;-65
2022/04/04 01:23:00;;;;;;;0.93;0.80;;;17.20;56.60;;;;;;5183661;28;20203;-65
2022/04/04 01:25:54;;;;;;;0.50;0.50;;;17.20;56.70;;;;;;5183388;28;20697;-65
2022/04/04 01:28:46;;;;;;;0.83;0.60;;;17.20;56.70;;;;;;5182606;28;20191;-65
2022/04/04 01:31:38;;;;;;;0.47;0.40;;;17.20;56.60;;;;;;5198019;28;20190;-63
2022/04/04 01:34:31;;;;;;;0.50;0.47;;;17.20;56.70;;;;;;5183817;28;20230;-65
2022/04/04 01:37:23;;;;;;;0.60;0.60;;;17.20;56.60;;;;;;5185119;28;20194;-65
2022/04/04 01:40:15;;;;;;;0.50;0.40;;;17.20;56.60;;;;;;5173141;28;20232;-65
2022/04/04 01:43:09;;;;;;;0.60;0.53;;;17.20;56.60;;;;;;5184461;28;20205;-66
2022/04/04 01:49:11;;;;;;;1.60;0.50;;;17.20;56.70;;;;;;5184802;28;20543;-65
2022/04/04 01:52:04;;;;;;;0.50;0.47;;;17.20;56.70;;;;;;5181157;28;20206;-65
2022/04/04 01:54:56;;;;;;;0.87;0.60;;;17.20;56.70;;;;;;5183590;28;20218;-65
2022/04/04 01:57:48;;;;;;;0.50;0.50;;;17.20;56.70;;;;;;5182311;28;20195;-65
2022/04/04 02:00:42;;;;;;;1.67;0.60;;;17.20;56.70;;;;;;5175620;28;20193;-65
2022/04/04 02:03:35;;;;;;;0.60;0.40;;;17.20;56.60;;;;;;5182957;28;20198;-64
2022/04/04 02:06:28;;;;;;;0.50;0.50;;;17.20;56.60;;;;;;5184624;28;20272;-65
2022/04/04 02:09:20;;;;;;;0.50;0.40;;;17.20;56.60;;;;;;5183865;28;20201;-65
2022/04/04 02:12:13;;;;;;;0.47;0.40;;;17.20;56.60;;;;;;5183806;28;20207;-65
2022/04/04 02:15:07;;;;;;;0.93;0.50;;;17.20;56.60;;;;;;5183915;28;20241;-65
2022/04/04 02:18:00;;;;;;;0.70;0.50;;;17.20;57.20;;;;;;5183039;28;20701;-65
2022/04/04 02:20:52;;;;;;;0.53;0.50;;;17.20;56.70;;;;;;5183931;28;20201;-65
2022/04/04 02:23:44;;;;;;;0.77;0.50;;;17.20;56.70;;;;;;5183560;28;20211;-65
2022/04/04 02:26:36;;;;;;;0.77;0.40;;;17.20;56.70;;;;;;5183625;28;20205;-64
2022/04/04 02:29:28;;;;;;;0.57;0.50;;;17.20;56.70;;;;;;5184747;28;20253;-65
2022/04/04 02:32:21;;;;;;;0.40;0.37;;;17.20;56.70;;;;;;5185245;28;20194;-65
2022/04/04 02:35:14;;;;;;;0.57;0.40;;;17.20;56.60;;;;;;5187929;28;20602;-64
2022/04/04 02:38:07;;;;;;;1.20;0.70;;;17.20;56.60;;;;;;5188112;28;20206;-63
2022/04/04 02:40:59;;;;;;;0.83;0.50;;;17.20;56.60;;;;;;5187876;28;20278;-62
2022/04/04 02:43:51;;;;;;;0.40;0.30;;;17.20;57.20;;;;;;5188647;28;20674;-62
2022/04/04 02:46:43;;;;;;;0.57;0.50;;;17.20;56.70;;;;;;5186602;28;20202;-62
2022/04/04 02:49:36;;;;;;;0.67;0.50;;;17.20;56.70;;;;;;5187235;28;20205;-61
2022/04/04 02:52:29;;;;;;;1.47;0.60;;;17.20;56.70;;;;;;5182475;28;20199;-65
2022/04/04 02:58:31;;;;;;;0.30;0.30;;;17.20;56.70;;;;;;5187878;28;20194;-65
2022/04/04 03:01:23;;;;;;;0.40;0.40;;;17.20;56.70;;;;;;5179499;28;20198;-65
2022/04/04 03:04:15;;;;;;;0.93;0.60;;;17.20;56.60;;;;;;5180553;28;20222;-65
2022/04/04 03:07:08;;;;;;;0.30;0.30;;;17.20;56.60;;;;;;5187426;28;20276;-65
2022/04/04 03:10:01;;;;;;;0.43;0.30;;;17.20;56.70;;;;;;5186989;28;20201;-65
2022/04/04 03:12:53;;;;;;;0.60;0.47;;;17.20;56.60;;;;;;5187017;28;20195;-65
2022/04/04 03:15:45;;;;;;;0.50;0.50;;;17.20;56.70;;;;;;5187259;28;20222;-65
2022/04/04 03:18:38;;;;;;;2.07;0.50;;;17.20;56.60;;;;;;5186962;28;20275;-63
2022/04/04 03:21:30;;;;;;;0.60;0.50;;;17.20;56.70;;;;;;5182381;28;20646;-66
2022/04/04 03:24:23;;;;;;;0.40;0.40;;;17.20;56.70;;;;;;5186002;28;20226;-64
2022/04/04 03:27:16;;;;;;;0.50;0.40;;;17.20;56.70;;;;;;5185760;28;20271;-64
2022/04/04 03:30:12;;;;;;;0.70;0.40;;;17.20;56.60;;;;;;5176677;28;20201;-65
2022/04/04 03:33:04;;;;;;;0.60;0.47;;;17.20;56.60;;;;;;5184003;28;20577;-65
2022/04/04 03:35:56;;;;;;;0.40;0.40;;;17.20;56.60;;;;;;5183251;28;20763;-64
2022/04/04 03:38:48;;;;;;;0.40;0.40;;;17.20;56.70;;;;;;5196987;28;20664;-64
2022/04/04 03:41:41;;;;;;;0.70;0.50;;;17.20;56.70;;;;;;5206236;28;20233;-64
2022/04/04 03:44:34;;;;;;;0.50;0.40;;;17.20;56.60;;;;;;5183614;28;20574;-65
2022/04/04 03:47:26;;;;;;;0.40;0.40;;;17.20;56.60;;;;;;5157487;28;20199;-64
2022/04/04 03:50:19;;;;;;;0.40;0.40;;;17.20;56.60;;;;;;5174092;28;20195;-64
2022/04/04 03:53:11;;;;;;;1.00;0.50;;;17.20;56.60;;;;;;5185786;28;20190;-65
2022/04/04 03:56:03;;;;;;;0.60;0.40;;;17.20;56.60;;;;;;5184676;28;20198;-64
2022/04/04 03:58:56;;;;;;;0.30;0.30;;;17.30;56.70;;;;;;5185583;28;20687;-64
2022/04/04 04:01:49;;;;;;;0.70;0.43;;;17.30;56.60;;;;;;5184963;28;20282;-65
2022/04/04 04:04:41;;;;;;;0.43;0.40;;;17.30;56.70;;;;;;5186902;28;20697;-64
2022/04/04 04:07:34;;;;;;;0.37;0.37;;;17.30;56.70;;;;;;5184443;28;20574;-66
2022/04/04 04:10:26;;;;;;;0.67;0.40;;;17.30;56.70;;;;;;5183106;28;20725;-65
2022/04/04 04:13:18;;;;;;;0.90;0.50;;;17.30;56.70;;;;;;5176842;28;20202;-64
2022/04/04 04:16:12;;;;;;;1.33;0.40;;;17.30;56.70;;;;;;5191663;28;20205;-65
2022/04/04 04:20:19;;;;;;;0.87;0.30;;;17.30;56.70;;;;;;5203383;28;20225;-65
2022/04/04 04:22:19;;;;;;;0.90;0.40;;;17.30;56.70;;;;;;5203065;28;20256;-65
2022/04/04 04:25:14;;;;;;;0.77;0.40;;;17.30;56.70;;;;;;5203225;28;20214;-64
2022/04/04 04:28:07;;;;;;;1.30;0.40;;;17.30;56.70;;;;;;5190152;28;20307;-65
2022/04/04 04:30:59;;;;;;;0.67;0.40;;;17.30;56.70;;;;;;5182777;28;20206;-64
2022/04/04 04:33:51;;;;;;;0.30;0.30;;;17.30;56.70;;;;;;5183766;28;20218;-65
2022/04/04 04:36:45;;;;;;;0.73;0.50;;;17.30;56.60;;;;;;5181605;28;20205;-66
2022/04/04 04:39:37;;;;;;;0.43;0.40;;;17.30;56.70;;;;;;5181339;28;20695;-64
2022/04/04 04:42:29;;;;;;;0.93;0.40;;;17.30;56.60;;;;;;5177742;28;20195;-65
2022/04/04 04:45:21;;;;;;;0.33;0.30;;;17.30;56.70;;;;;;5181628;28;20305;-65
2022/04/04 04:48:14;;;;;;;1.60;0.63;;;17.30;56.60;;;;;;5180976;28;20206;-65
2022/04/04 04:51:06;;;;;;;0.93;0.40;;;17.30;56.70;;;;;;5180890;28;20197;-66
2022/04/04 04:53:59;;;;;;;0.40;0.30;;;17.30;56.70;;;;;;5180695;28;20228;-66
2022/04/04 04:56:51;;;;;;;0.40;0.30;;;17.30;56.60;;;;;;5182265;28;20206;-65
2022/04/04 04:59:43;;;;;;;1.07;0.40;;;17.30;56.70;;;;;;5182356;28;20218;-64
2022/04/04 05:02:36;;;;;;;0.40;0.40;;;17.30;56.60;;;;;;5182125;28;20247;-64
2022/04/04 05:05:28;;;;;;;0.97;0.30;;;17.30;56.60;;;;;;5181296;28;20601;-65
2022/04/04 05:08:20;;;;;;;0.70;0.57;;;17.30;56.60;;;;;;5182046;28;20666;-66
2022/04/04 05:11:13;;;;;;;0.73;0.47;;;17.30;56.60;;;;;;5181751;28;20197;-65
2022/04/04 05:14:05;;;;;;;0.83;0.40;;;17.30;56.60;;;;;;5181957;28;20229;-66
2022/04/04 05:16:57;;;;;;;0.60;0.40;;;17.30;56.70;;;;;;5181802;28;20246;-64
2022/04/04 05:19:51;;;;;;;1.33;0.60;;;17.30;56.70;;;;;;5180502;28;20202;-66
2022/04/04 05:22:43;;;;;;;0.37;0.37;;;17.30;56.70;;;;;;5181086;28;20202;-65
2022/04/04 05:25:35;;;;;;;0.63;0.30;;;17.30;56.70;;;;;;5181032;28;20853;-64
2022/04/04 05:28:28;;;;;;;0.73;0.23;;;17.30;56.70;;;;;;5179702;28;20677;-65
2022/04/04 05:31:20;;;;;;;0.67;0.40;;;17.30;56.70;;;;;;5160279;28;20195;-64
2022/04/04 05:34:13;;;;;;;0.73;0.50;;;17.30;56.70;;;;;;5180546;28;20221;-65
2022/04/04 05:37:05;;;;;;;0.63;0.50;;;17.30;56.70;;;;;;5184734;28;20190;-65
2022/04/04 05:39:57;;;;;;;0.50;0.50;;;17.30;56.70;;;;;;5180520;28;20218;-64
2022/04/04 05:42:50;;;;;;;0.73;0.40;;;17.30;56.70;;;;;;5161882;28;20203;-64
2022/04/04 05:45:43;;;;;;;0.70;0.40;;;17.30;56.70;;;;;;5180732;28;20221;-64
2022/04/04 05:48:35;;;;;;;0.40;0.40;;;17.30;56.70;;;;;;5180883;28;20198;-64
2022/04/04 05:51:28;;;;;;;0.40;0.40;;;17.30;56.70;;;;;;5181114;28;20482;-64
2022/04/04 05:54:20;;;;;;;0.43;0.40;;;17.30;56.70;;;;;;5180968;28;20218;-64
2022/04/04 05:57:12;;;;;;;0.50;0.50;;;17.30;56.70;;;;;;5180631;28;20608;-64
2022/04/04 06:00:08;;;;;;;0.33;0.30;;;17.30;56.70;;;;;;5180055;28;20690;-64
2022/04/04 06:03:02;;;;;;;0.30;0.30;;;17.30;56.70;;;;;;5180460;28;20190;-64
2022/04/04 06:05:54;;;;;;;0.40;0.40;;;17.30;56.70;;;;;;5180701;28;20205;-64
2022/04/04 06:08:46;;;;;;;0.60;0.40;;;17.30;56.70;;;;;;5159632;28;20685;-65
2022/04/04 06:11:38;;;;;;;0.40;0.30;;;17.30;56.70;;;;;;5161373;28;20203;-64
2022/04/04 06:14:31;;;;;;;0.40;0.40;;;17.30;56.70;;;;;;5160654;28;20219;-64
2022/04/04 06:17:23;;;;;;;0.33;0.30;;;17.30;56.70;;;;;;5160166;28;20598;-64
2022/04/04 06:20:17;;;;;;;0.40;0.40;;;17.30;56.70;;;;;;5172697;28;20214;-65
2022/04/04 06:23:09;;;;;;;0.30;0.30;;;17.30;56.70;;;;;;5159661;28;20206;-64
2022/04/04 06:26:02;;;;;;;0.37;0.37;;;17.30;56.70;;;;;;5160734;28;20667;-64
2022/04/04 06:28:54;;;;;;;0.30;0.30;;;17.30;56.70;;;;;;5170315;28;20244;-64
2022/04/04 06:31:46;;;;;;;0.53;0.40;;;17.30;57.30;;;;;;5180911;28;20728;-64
2022/04/04 06:34:38;;;;;;;1.57;0.40;;;17.30;56.70;;;;;;5179954;28;20230;-65
2022/04/04 06:37:32;;;;;;;0.50;0.50;;;17.30;56.70;;;;;;5180698;28;20194;-64
2022/04/04 06:40:24;;;;;;;1.13;0.50;;;17.30;56.70;;;;;;5181309;28;20232;-64
2022/04/04 06:43:17;;;;;;;0.70;0.47;;;17.30;56.70;;;;;;5180737;28;20205;-64
2022/04/04 06:46:09;;;;;;;0.50;0.30;;;17.30;56.70;;;;;;5160312;28;20208;-64
2022/04/04 06:49:01;;;;;;;0.47;0.40;;;17.30;56.70;;;;;;5162976;28;20206;-64
2022/04/04 06:51:53;;;;;;;0.50;0.30;;;17.30;56.70;;;;;;5179709;28;20194;-65
2022/04/04 06:54:48;;;;;;;0.50;0.40;;;17.30;56.70;;;;;;5178194;28;20222;-65
2022/04/04 06:57:41;;;;;;;1.23;0.40;;;17.30;56.70;;;;;;5183687;28;20562;-62
2022/04/04 07:00:34;;;;;;;0.40;0.30;;;17.30;56.70;;;;;;5183212;28;20223;-65
2022/04/04 07:03:26;;;;;;;0.47;0.47;;;17.30;56.70;;;;;;5182577;28;20499;-65
2022/04/04 07:06:19;;;;;;;0.50;0.30;;;17.30;56.70;;;;;;5183360;28;20727;-64
2022/04/04 07:09:12;;;;;;;1.80;0.40;;;17.30;56.60;;;;;;5182857;28;20269;-64
2022/04/04 07:12:08;;;;;;;0.43;0.40;;;17.30;56.70;;;;;;5182939;28;20194;-64
2022/04/04 07:15:00;;;;;;;0.50;0.50;;;17.30;56.70;;;;;;5183408;28;20218;-64
2022/04/04 07:17:53;;;;;;;0.33;0.33;;;17.30;56.70;;;;;;5183642;28;20201;-64
2022/04/04 07:20:45;;;;;;;0.57;0.40;;;17.30;56.60;;;;;;5185159;28;20221;-64
2022/04/04 07:23:37;;;;;;;1.80;0.43;;;17.30;56.70;;;;;;5186045;28;20195;-63
2022/04/04 07:26:29;;;;;;;0.47;0.30;;;17.30;56.60;;;;;;5184787;28;20194;-64
2022/04/04 07:29:23;;;;;;;0.43;0.40;;;17.30;56.60;;;;;;5189976;28;20195;-64
2022/04/04 07:32:15;;;;;;;0.80;0.50;;;17.30;56.70;;;;;;5184663;28;20191;-65
2022/04/04 07:35:10;;;;;;;1.00;0.67;;;17.30;56.60;;;;;;5185555;28;20697;-64
2022/04/04 07:38:02;;;;;;;0.30;0.30;;;17.30;56.60;;;;;;5186004;28;20736;-64
2022/04/04 07:40:54;;;;;;;0.57;0.50;;;17.30;56.60;;;;;;5186029;28;20301;-64
2022/04/04 07:43:46;;;;;;;0.50;0.50;;;17.30;56.60;;;;;;5186668;28;20218;-64
2022/04/04 07:46:40;;;;;;;0.77;0.47;;;17.30;56.70;;;;;;5185513;28;20198;-63
2022/04/04 07:49:32;;;;;;;0.80;0.50;;;17.30;56.70;;;;;;5186402;28;20194;-65
2022/04/04 07:52:25;;;;;;;1.17;0.40;;;17.30;56.70;;;;;;5198708;28;20569;-64
2022/04/04 07:55:18;;;;;;;0.67;0.50;;;17.30;56.60;;;;;;5194807;28;20228;-65
2022/04/04 07:58:10;;;;;;;0.70;0.40;;;17.30;56.70;;;;;;5184890;28;20205;-65
2022/04/04 08:01:03;;;;;;;1.13;0.57;;;17.30;56.70;;;;;;5185145;28;20225;-63
2022/04/04 08:03:56;;;;;;;0.40;0.40;;;17.30;57.30;;;;;;5186189;28;20298;-64
2022/04/04 08:06:48;;;;;;;0.77;0.60;;;17.30;56.70;;;;;;5186390;28;20194;-65
2022/04/04 08:09:40;;;;;;;0.60;0.50;;;17.30;56.70;;;;;;5186013;28;20248;-64
2022/04/04 08:12:33;;;;;;;1.23;0.50;;;17.30;56.70;;;;;;5184130;28;20343;-65
2022/04/04 08:15:25;;;;;;;1.43;0.50;;;17.30;56.70;;;;;;5183886;28;20612;-66
2022/04/04 08:18:17;;;;;;;0.43;0.43;;;17.30;56.70;;;;;;5182138;28;20214;-67
2022/04/04 08:21:12;;;;;;;0.50;0.47;;;17.30;57.30;;;;;;5182948;28;20217;-67
2022/04/04 08:24:05;;;;;;;0.67;0.50;;;17.30;57.00;;;;;;5182241;28;20214;-66
2022/04/04 08:26:57;;;;;;;0.50;0.47;;;17.30;56.80;;;;;;5182741;28;20573;-66
2022/04/04 08:29:49;;;;;;;0.40;0.40;;;17.30;56.80;;;;;;5182438;28;20637;-66
2022/04/04 08:32:42;;;;;;;0.80;0.57;;;17.40;56.90;;;;;;5182478;28;20195;-66
2022/04/04 08:35:35;;;;;;;1.67;0.60;;;17.40;56.90;;;;;;5198573;28;20248;-66
2022/04/04 08:38:29;;;;;;;1.33;0.60;;;17.40;56.90;;;;;;5202914;28;20271;-67
2022/04/04 08:41:22;;;;;;;1.93;0.60;;;17.40;56.90;;;;;;5201440;28;20719;-66
2022/04/04 08:44:16;;;;;;;0.73;0.40;;;17.40;56.90;;;;;;5203101;28;20736;-66
2022/04/04 08:47:09;;;;;;;0.73;0.43;;;17.40;56.90;;;;;;5202521;28;20239;-66
2022/04/04 08:50:02;;;;;;;0.67;0.57;;;17.40;57.00;;;;;;5198738;28;20253;-66
2022/04/04 08:52:54;;;;;;;1.13;0.57;;;17.50;57.00;;;;;;5165537;28;20202;-67
2022/04/04 08:55:47;;;;;;;0.83;0.47;;;17.40;57.00;;;;;;5176369;28;20597;-66
2022/04/04 08:58:40;;;;;;;2.10;0.37;;;17.50;57.00;;;;;;5181326;28;20205;-67
2022/04/04 09:01:32;;;;;;;0.40;0.30;;;17.50;57.10;;;;;;5188598;28;20233;-66
2022/04/04 09:04:24;;;;;;;0.93;0.50;;;17.40;57.10;;;;;;5193255;28;20209;-65
2022/04/04 09:07:16;;;;;;;0.83;0.40;;;17.50;57.20;;;;;;5201424;28;20582;-66
2022/04/04 09:10:13;;;;;;;0.70;0.50;;;17.50;57.30;;;;;;5202553;28;20304;-66
2022/04/04 09:13:13;;;;;;;0.47;0.40;;;17.50;57.40;;;;;;5205240;28;20197;-66
2022/04/04 09:16:06;;;;;;;0.77;0.40;;;17.50;57.40;;;;;;5204960;28;20187;-66
2022/04/04 09:18:58;;;;;;;0.60;0.40;;;17.50;57.50;;;;;;5204320;28;21035;-66
2022/04/04 09:21:51;;;;;;;0.57;0.47;;;17.50;57.50;;;;;;5195350;28;20222;-66
2022/04/04 09:24:52;;;;;;;0.63;0.47;;;17.40;57.50;;;;;;5184957;28;20223;-64
2022/04/04 09:27:44;;;;;;;0.40;0.40;;;17.40;57.50;;;;;;5185070;28;20190;-66
2022/04/04 09:30:38;;;;;;;0.87;0.50;;;17.40;57.60;;;;;;5178748;28;20204;-68
2022/04/04 09:33:35;;;;;;;0.70;0.47;;;17.40;57.60;;;;;;5188053;28;20569;-68
2022/04/04 09:36:27;;;;;;;1.77;0.50;;;17.40;57.60;;;;;;5182065;28;20198;-68
2022/04/04 09:39:19;;;;;;;0.47;0.40;;;17.40;57.60;;;;;;5182696;28;20786;-68
2022/04/04 09:42:15;;;;;;;0.93;0.57;;;17.50;57.60;;;;;;5203186;28;20229;-68
2022/04/04 09:45:10;;;;;;;0.63;0.47;;;17.50;57.60;;;;;;5203315;28;20220;-68
2022/04/04 09:48:06;;;;;;;1.57;0.40;;;17.40;57.50;;;;;;5164051;28;20194;-68
2022/04/04 09:50:58;;;;;;;0.50;0.50;;;17.50;57.50;;;;;;5173366;28;20222;-68
2022/04/04 09:54:01;;;;;;;0.63;0.43;;;17.50;57.40;;;;;;5179423;28;20229;-68
2022/04/04 09:56:57;;;;;;;0.77;0.50;;;17.50;57.40;;;;;;5180265;28;20216;-69
2022/04/04 09:59:53;;;;;;;0.80;0.60;;;17.50;57.30;;;;;;5181514;28;20191;-68
2022/04/04 10:02:45;;;;;;;0.23;0.23;;;17.50;57.30;;;;;;5181068;28;20390;-68
2022/04/04 10:05:41;;;;;;;1.07;0.43;;;17.50;57.30;;;;;;5180207;28;20218;-68
2022/04/04 10:08:36;;;;;;;0.67;0.40;;;17.50;57.30;;;;;;5177556;28;20288;-68
2022/04/04 10:11:30;;;;;;;0.60;0.47;;;17.50;57.30;;;;;;5184300;28;20194;-68
2022/04/04 10:14:23;;;;;;;0.83;0.40;;;17.50;57.20;;;;;;5201451;28;20224;-69
2022/04/04 10:17:17;;;;;;;1.13;0.40;;;17.50;57.20;;;;;;5200731;28;20201;-68
2022/04/04 10:20:12;;;;;;;1.03;0.63;;;17.50;57.20;;;;;;5180755;28;20195;-68
2022/04/04 10:23:07;;;;;;;1.33;0.50;;;17.50;57.20;;;;;;5172670;28;20329;-68
2022/04/04 10:26:00;;;;;;;1.37;0.60;;;17.50;57.20;;;;;;5180882;28;20202;-68
2022/04/04 10:29:06;;;;;;;0.97;0.57;;;17.50;57.20;;;;;;5181458;28;20201;-67
2022/04/04 10:32:00;;;;;;;0.57;0.50;;;17.50;57.20;;;;;;5180729;28;20202;-68
2022/04/04 10:34:52;;;;;;;1.00;0.60;;;17.50;57.20;;;;;;5180149;28;20594;-68
2022/04/04 10:37:45;;;;;;;1.63;0.53;;;17.50;57.10;;;;;;5181059;28;20194;-67
2022/04/04 10:40:39;;;;;;;1.57;0.50;;;17.50;57.10;;;;;;5176608;28;20199;-69
2022/04/04 10:43:33;;;;;;;0.60;0.47;;;17.50;57.20;;;;;;5175061;28;20245;-68
2022/04/04 10:46:27;;;;;;;0.40;0.40;;;17.50;57.10;;;;;;5181564;28;20197;-68
2022/04/04 10:49:20;;;;;;;0.60;0.50;;;17.50;57.20;;;;;;5181717;28;20282;-68
2022/04/04 10:52:12;;;;;;;1.07;0.40;;;17.50;57.20;;;;;;5173258;28;20190;-68
2022/04/04 10:55:26;;;;;;;0.93;0.50;;;17.50;57.10;;;;;;5186913;28;20246;-69
2022/04/04 10:58:24;;;;;;;1.43;0.70;;;17.50;57.20;;;;;;5186864;28;20685;-68
2022/04/04 11:01:18;;;;;;;1.10;0.70;;;17.50;57.20;;;;;;5186285;28;20301;-68
2022/04/04 11:04:24;;;;;;;0.50;0.50;;;17.50;57.20;;;;;;5167463;28;20215;-68
2022/04/04 11:10:42;;;;;;;1.40;1.30;;;17.50;57.20;;;;;;5167986;28;20191;-68
2022/04/04 11:13:36;;;;;;;1.87;1.63;;;17.50;57.10;;;;;;5164651;28;20318;-68
2022/04/04 11:17:17;;;;;;;2.87;1.20;;;17.50;57.10;;;;;;5162180;28;20199;-68
2022/04/04 11:20:32;;;;;;;1.33;0.80;;;17.50;57.10;;;;;;5188043;28;20712;-68
2022/04/04 11:23:33;;;;;;;2.10;0.90;;;17.50;57.10;;;;;;5178501;28;20382;-67
2022/04/04 11:26:26;;;;;;;1.00;0.77;;;17.50;57.10;;;;;;5168679;28;20197;-68
2022/04/04 11:29:23;;;;;;;0.87;0.87;;;17.50;57.10;;;;;;5174256;28;20335;-68
2022/04/04 11:32:24;;;;;;;1.20;1.03;;;17.50;57.10;;;;;;5199028;28;20186;-68
2022/04/04 11:35:20;;;;;;;2.10;1.30;;;17.50;57.10;;;;;;5223514;22;20309;-64
2022/04/04 11:38:12;;;;;;;2.00;1.17;;;17.50;57.10;;;;;;5200360;28;20206;-66
2022/04/04 11:41:11;;;;;;;2.33;1.20;;;17.50;57.10;;;;;;5207561;28;20205;-66
2022/04/04 11:44:03;;;;;;;1.53;1.43;;;17.50;57.10;;;;;;5207571;28;20190;-66
2022/04/04 11:47:05;;;;;;;1.63;1.27;;;17.50;57.10;;;;;;5208295;28;20708;-66
2022/04/04 11:50:01;;;;;;;2.20;1.40;;;17.50;57.10;;;;;;5207352;28;20207;-66
2022/04/04 11:52:56;;;;;;;2.50;1.40;;;17.50;57.20;;;;;;5205213;28;20305;-66
2022/04/04 11:55:48;;;;;;;1.70;1.60;;;17.50;57.20;;;;;;5207373;28;20759;-66
2022/04/04 11:58:48;;;;;;;2.13;1.60;;;17.50;57.20;;;;;;5208425;28;20190;-66
2022/04/04 12:01:40;;;;;;;2.17;1.53;;;17.50;57.20;;;;;;5201423;28;20205;-65
2022/04/04 12:04:35;;;;;;;2.60;2.20;;;17.50;57.20;;;;;;5206221;28;20223;-64
2022/04/04 12:07:31;;;;;;;2.93;2.47;;;17.50;57.30;;;;;;5206311;28;20221;-64
2022/04/04 12:10:31;;;;;;;4.07;2.43;;;17.50;57.30;;;;;;5207932;28;20253;-66
2022/04/04 12:13:24;;;;;;;4.23;3.43;;;17.40;57.30;;;;;;5206920;28;20696;-64
2022/04/04 12:16:17;;;;;;;7.67;4.60;;;17.40;57.40;;;;;;5207878;28;20220;-65
2022/04/04 12:19:10;;;;;;;5.50;3.97;;;17.40;57.50;;;;;;5208496;28;20202;-65
2022/04/04 12:24:54;;;;;;;7.07;4.17;;;17.40;57.60;;;;;;5217417;28;20240;-64
2022/04/04 12:25:16;;;;;;;5.23;3.50;;;17.40;57.70;;;;;;5206528;28;20699;-64
2022/04/04 12:28:09;;;;;;;5.57;4.67;;;17.40;57.70;;;;;;5200083;28;20750;-64
2022/04/04 12:31:11;;;;;;;6.00;5.40;;;17.40;57.70;;;;;;5185082;28;20194;-64
2022/04/04 12:34:06;;;;;;;6.40;5.03;;;17.40;57.80;;;;;;5186397;28;20616;-65
2022/04/04 12:37:01;;;;;;;5.10;4.57;;;17.40;57.80;;;;;;5186221;28;20219;-65
2022/04/04 12:40:13;;;;;;;8.07;5.47;;;17.30;57.80;;;;;;5185912;28;20205;-64
2022/04/04 12:43:08;;;;;;;7.13;5.20;;;17.30;57.80;;;;;;5195676;28;20232;-64
2022/04/04 12:46:00;;;;;;;8.37;4.70;;;17.30;57.80;;;;;;5206233;28;20297;-65
2022/04/04 12:48:52;;;;;;;5.57;4.33;;;17.30;57.90;;;;;;5206306;28;20673;-66
2022/04/04 12:51:52;;;;;;;5.43;4.33;;;17.30;57.90;;;;;;5225246;28;20661;-66
2022/04/04 12:54:45;;;;;;;5.40;4.13;;;17.30;57.90;;;;;;5226869;28;20738;-66
2022/04/04 12:57:38;;;;;;;7.37;4.97;;;17.40;58.00;;;;;;5226112;28;20282;-65
2022/04/04 13:00:35;;;;;;;5.80;4.60;;;17.40;58.00;;;;;;5226000;28;20621;-64
2022/04/04 13:03:28;;;;;;;5.37;4.03;;;17.40;58.00;;;;;;5224598;28;20588;-65
2022/04/04 13:06:21;;;;;;;6.80;4.30;;;17.40;58.00;;;;;;5215205;28;20209;-64
2022/04/04 13:09:22;;;;;;;6.23;4.30;;;17.40;58.00;;;;;;5204480;28;20276;-65
2022/04/04 13:12:25;;;;;;;5.27;3.50;;;17.40;58.00;;;;;;5205490;28;20201;-64
2022/04/04 13:15:37;;;;;;;4.57;3.73;;;17.40;57.90;;;;;;5205095;28;20196;-65
2022/04/04 13:18:29;;;;;;;5.77;3.73;;;17.40;57.90;;;;;;5204706;28;20576;-65
2022/04/04 13:21:21;;;;;;;5.73;4.47;;;17.50;58.00;;;;;;5226249;28;20193;-65
2022/04/04 13:24:13;;;;;;;5.03;3.60;;;17.40;57.90;;;;;;5221027;28;20688;-64
2022/04/04 13:27:05;;;;;;;5.70;4.10;;;17.50;58.00;;;;;;5225588;28;20612;-64
2022/04/04 13:29:57;;;;;;;4.67;3.93;;;17.50;58.00;;;;;;5224872;28;20193;-64
2022/04/04 13:32:51;;;;;;;4.90;3.47;;;17.50;58.00;;;;;;5225339;28;20185;-64
2022/04/04 13:35:43;;;;;;;4.17;3.60;;;17.50;58.10;;;;;;5224689;28;20217;-64
2022/04/04 13:38:35;;;;;;;5.10;3.40;;;17.50;58.10;;;;;;5225494;28;20182;-66
2022/04/04 13:41:30;;;;;;;3.93;3.07;;;17.50;58.10;;;;;;5227495;28;20698;-66
2022/04/04 13:44:22;;;;;;;4.03;2.80;;;17.50;58.10;;;;;;5225426;28;20189;-66
2022/04/04 13:47:16;;;;;;;5.07;3.13;;;17.50;58.10;;;;;;5225670;28;20307;-66
2022/04/04 13:50:10;;;;;;;8.60;3.10;;;17.50;58.10;;;;;;5224903;28;20195;-66
2022/04/04 13:53:02;;;;;;;4.17;3.10;;;17.50;58.10;;;;;;5222784;28;20193;-66
2022/04/04 13:55:54;;;;;;;3.93;2.80;;;17.50;58.10;;;;;;5222935;28;20243;-66
2022/04/04 13:58:47;;;;;;;2.97;2.60;;;17.50;58.10;;;;;;5225216;28;20197;-65
2022/04/04 14:01:39;;;;;;;3.60;2.53;;;17.50;58.10;;;;;;5223244;28;20203;-66
2022/04/04 14:04:35;;;;;;;4.27;2.30;;;17.50;58.10;;;;;;5219324;28;20667;-65
2022/04/04 14:07:29;;;;;;;3.10;1.83;;;17.50;58.10;;;;;;5209732;28;20221;-65
2022/04/04 14:10:21;;;;;;;3.67;2.30;;;17.50;58.10;;;;;;5224660;28;20193;-65
2022/04/04 14:13:13;;;;;;;4.93;2.37;;;17.50;58.10;;;;;;5224224;28;20189;-65
2022/04/04 14:16:06;;;;;;;4.80;1.77;;;17.50;58.10;;;;;;5224352;28;20302;-65
2022/04/04 14:18:58;;;;;;;4.57;2.03;;;17.50;58.10;;;;;;5224543;28;20193;-65
2022/04/04 14:21:50;;;;;;;3.60;1.70;;;17.50;58.10;;;;;;5223898;28;20196;-65
2022/04/04 14:24:43;;;;;;;1.90;1.60;;;17.50;58.10;;;;;;5224006;28;20197;-65
2022/04/04 14:27:35;;;;;;;2.50;1.80;;;17.50;58.10;;;;;;5223409;28;20217;-65
2022/04/04 14:30:28;;;;;;;2.27;1.67;;;17.50;58.10;;;;;;5228725;28;20261;-65
2022/04/04 14:33:20;;;;;;;1.80;1.47;;;17.50;58.10;;;;;;5228823;28;20623;-65
2022/04/04 14:36:12;;;;;;;2.27;1.47;;;17.50;58.10;;;;;;5228777;28;20224;-65
2022/04/04 14:39:07;;;;;;;1.93;1.40;;;17.50;58.10;;;;;;5228978;28;20334;-66
2022/04/04 14:42:01;;;;;;;1.73;1.43;;;17.50;58.10;;;;;;5228418;28;20201;-65
2022/04/04 14:44:54;;;;;;;1.77;1.23;;;17.50;58.10;;;;;;5228924;28;20204;-67
2022/04/04 14:47:46;;;;;;;1.30;1.13;;;17.50;58.10;;;;;;5232939;28;20318;-64
2022/04/04 14:50:40;;;;;;;1.60;1.20;;;17.50;58.10;;;;;;5234671;28;20323;-66
2022/04/04 14:53:32;;;;;;;2.00;1.33;;;17.50;58.10;;;;;;5224551;28;20212;-66
2022/04/04 14:56:24;;;;;;;2.93;1.63;;;17.50;58.10;;;;;;5232634;28;20228;-65
2022/04/04 14:59:17;;;;;;;1.67;1.17;;;17.50;58.10;;;;;;5223627;28;20607;-67
2022/04/04 15:02:09;;;;;;;2.77;1.13;;;17.50;58.10;;;;;;5218537;28;20217;-67
2022/04/04 15:05:02;;;;;;;3.60;1.80;;;17.50;58.10;;;;;;5227481;28;20564;-67
2022/04/04 15:07:54;;;;;;;1.47;1.00;;;17.50;58.10;;;;;;5221999;28;20188;-66
2022/04/04 15:10:46;;;;;;;1.80;0.97;;;17.50;58.20;;;;;;5237690;28;20660;-67
2022/04/04 15:13:38;;;;;;;3.37;1.00;;;17.50;58.20;;;;;;5228463;28;20269;-66
2022/04/04 15:16:32;;;;;;;1.80;1.20;;;17.50;58.20;;;;;;5234207;28;20339;-67